Time;durP1;ratioP1;P1;durP2;ratioP2;P2;SDS_P1;SDS_P2;PMS_P1;PMS_P2;Temp;Humidity;BMP_temperature;BMP_pressure;BME280_temperature;BME280_humidity;BME280_pressure;Samples;Min_cycle;Max_cycle;Signal;HPM_P1;HPM_P2
2024/01/27 00:01:19;;;;;;;13.10;12.60;;;;;;;-141.02;100.00;74323.72;5112771;28;20213;-67
2024/01/27 00:03:47;;;;;;;12.30;11.90;;;;;;;-141.02;100.00;74571.75;5112897;28;20256;-67
2024/01/27 00:06:14;;;;;;;12.50;12.10;;;;;;;-141.02;100.00;74819.81;5112478;28;20759;-67
2024/01/27 00:08:42;;;;;;;12.60;12.20;;;;;;;-141.02;100.00;75067.88;5112847;28;20228;-67
2024/01/27 00:11:09;;;;;;;12.83;12.43;;;;;;;-141.02;100.00;75315.94;5112377;28;20710;-67
2024/01/27 00:13:36;;;;;;;13.13;12.63;;;;;;;-141.02;100.00;75315.94;5112700;28;20236;-67
2024/01/27 00:16:03;;;;;;;12.50;12.10;;;;;;;-141.02;100.00;75812.16;5112666;28;20201;-67
2024/01/27 00:18:30;;;;;;;13.20;12.70;;;;;;;-141.02;100.00;75812.16;5112340;28;20238;-66
2024/01/27 00:20:57;;;;;;;13.13;12.63;;;;;;;-141.02;100.00;75564.03;5112412;28;20276;-67
2024/01/27 00:23:24;;;;;;;12.70;12.20;;;;;;;-141.02;100.00;76060.28;5112312;28;20730;-66
2024/01/27 00:25:53;;;;;;;12.40;12.00;;;;;;;-141.02;100.00;75812.16;5112297;28;20674;-67
2024/01/27 00:28:20;;;;;;;13.80;13.30;;;;;;;-141.02;100.00;76060.28;5112356;28;20290;-67
2024/01/27 00:30:47;;;;;;;12.90;12.40;;;;;;;-141.02;100.00;76060.28;5112517;28;20223;-67
2024/01/27 00:33:14;;;;;;;12.50;12.10;;;;;;;-141.02;100.00;76060.28;5114162;28;20276;-67
2024/01/27 00:35:41;;;;;;;13.33;12.83;;;;;;;-141.02;100.00;76060.28;5116578;28;20295;-66
2024/01/27 00:38:08;;;;;;;14.30;13.80;;;;;;;-141.02;100.00;76060.28;5116449;28;20197;-66
2024/01/27 00:40:35;;;;;;;14.30;13.80;;;;;;;-141.02;100.00;75812.16;5116359;28;20549;-66
2024/01/27 00:43:05;;;;;;;14.17;13.67;;;;;;;-141.02;100.00;76308.44;5116627;28;20280;-66
2024/01/27 00:45:32;;;;;;;14.07;13.57;;;;;;;-141.02;100.00;76556.59;5116183;28;20232;-67
2024/01/27 00:47:59;;;;;;;16.07;15.47;;;;;;;-141.02;100.00;76308.44;5116161;28;20235;-67
2024/01/27 00:50:26;;;;;;;14.57;14.07;;;;;;;-141.02;100.00;75315.94;5116101;28;20665;-66
2024/01/27 00:52:53;;;;;;;14.57;14.00;;;;;;;-141.02;100.00;75812.16;5116369;28;20279;-67
2024/01/27 00:55:20;;;;;;;13.90;13.40;;;;;;;-141.02;100.00;75812.16;5116368;28;20197;-66
2024/01/27 00:57:47;;;;;;;13.60;13.10;;;;;;;-141.02;100.00;75812.16;5116089;28;20199;-66
2024/01/27 01:00:16;;;;;;;13.20;12.70;;;;;;;-141.02;100.00;75564.03;5116007;28;20189;-66
2024/01/27 01:02:43;;;;;;;12.80;12.30;;;;;;;-141.02;100.00;75564.03;5116321;28;20293;-67
2024/01/27 01:05:10;;;;;;;13.57;13.07;;;;;;;-141.02;100.00;75564.03;5116106;28;20193;-66
2024/01/27 01:07:37;;;;;;;16.80;16.10;;;;;;;-141.02;100.00;75812.16;5116189;28;20195;-66
2024/01/27 01:10:05;;;;;;;15.80;15.20;;;;;;;-141.02;100.00;76804.81;5115878;28;20200;-66
2024/01/27 01:12:32;;;;;;;14.00;13.50;;;;;;;-141.02;100.00;78046.00;5116022;28;20228;-66
2024/01/27 01:14:59;;;;;;;14.13;13.67;;;;;;;-141.02;100.00;79039.28;5116072;28;20240;-66
2024/01/27 01:17:27;;;;;;;14.23;13.77;;;;;;;-141.02;100.00;79039.28;5115987;28;20200;-66
2024/01/27 01:19:54;;;;;;;14.20;13.80;;;;;;;-141.02;100.00;79287.66;5115869;28;20197;-66
2024/01/27 01:22:21;;;;;;;14.53;14.10;;;;;;;-141.02;100.00;79536.03;5115602;28;20291;-66
2024/01/27 01:24:48;;;;;;;14.30;13.90;;;;;;;-141.02;100.00;79536.03;5115540;28;20280;-66
2024/01/27 01:27:18;;;;;;;14.80;14.30;;;;;;;-141.02;100.00;79536.03;5115458;28;20199;-66
2024/01/27 01:29:45;;;;;;;15.30;14.80;;;;;;;-141.02;100.00;79784.44;5115707;28;20238;-66
2024/01/27 01:32:12;;;;;;;15.80;15.30;;;;;;;-141.02;100.00;80032.88;5115582;28;20308;-66
2024/01/27 01:34:40;;;;;;;15.90;15.40;;;;;;;-141.02;100.00;79784.44;5115653;28;20272;-66
2024/01/27 01:37:07;;;;;;;15.43;14.93;;;;;;;-141.02;100.00;80032.88;5115586;28;20215;-67
2024/01/27 01:39:34;;;;;;;16.00;15.50;;;;;;;-141.02;100.00;80281.31;5115531;28;20204;-66
2024/01/27 01:42:01;;;;;;;16.63;16.03;;;;;;;-141.02;100.00;80032.88;5115441;28;20193;-67
2024/01/27 01:44:31;;;;;;;16.20;15.60;;;;;;;-141.02;100.00;80281.31;5114170;28;20320;-67
2024/01/27 01:46:59;;;;;;;16.33;15.73;;;;;;;-141.02;100.00;80281.31;5115213;28;20197;-66
2024/01/27 01:49:26;;;;;;;17.63;17.03;;;;;;;-141.02;100.00;80529.75;5115047;28;20747;-66
2024/01/27 01:51:55;;;;;;;19.37;18.67;;;;;;;-141.02;100.00;80529.75;5114953;28;20239;-67
2024/01/27 01:54:22;;;;;;;19.03;18.33;;;;;;;-141.02;100.00;80529.75;5114975;28;20193;-67
2024/01/27 01:56:50;;;;;;;18.73;18.03;;;;;;;-141.02;100.00;80778.25;5115181;28;20193;-67
2024/01/27 01:59:17;;;;;;;19.90;19.10;;;;;;;-141.02;100.00;80032.88;5114854;28;20289;-67
2024/01/27 02:01:43;;;;;;;19.37;18.67;;;;;;;-141.02;100.00;79784.44;5115123;28;20200;-67
2024/01/27 02:04:10;;;;;;;20.23;19.43;;;;;;;-141.02;100.00;79784.44;5115037;28;20236;-67
2024/01/27 02:06:37;;;;;;;17.70;17.10;;;;;;;-141.02;100.00;79784.44;5115032;28;20193;-67
2024/01/27 02:09:06;;;;;;;16.53;16.03;;;;;;;-141.02;100.00;79784.44;5114976;28;20222;-67
2024/01/27 02:11:33;;;;;;;17.63;17.03;;;;;;;-141.02;100.00;79784.44;5114817;28;20283;-67
2024/01/27 02:14:00;;;;;;;16.07;15.57;;;;;;;-141.02;100.00;79784.44;5115548;28;20251;-67
2024/01/27 02:16:27;;;;;;;16.03;15.53;;;;;;;-141.02;100.00;79784.44;5114483;28;20280;-67
2024/01/27 02:18:54;;;;;;;16.07;15.57;;;;;;;-141.02;100.00;79536.03;5114841;28;20275;-67
2024/01/27 02:21:21;;;;;;;16.77;16.27;;;;;;;-141.02;100.00;79784.44;5114677;28;20292;-68
2024/01/27 02:23:48;;;;;;;17.53;16.93;;;;;;;-141.02;100.00;80032.88;5114367;28;20224;-67
2024/01/27 02:26:16;;;;;;;16.87;16.27;;;;;;;-141.02;100.00;80529.75;5114626;28;20289;-67
2024/01/27 02:28:43;;;;;;;15.90;15.40;;;;;;;-141.02;100.00;81026.72;5114239;28;20734;-68
2024/01/27 02:31:10;;;;;;;15.60;15.10;;;;;;;-141.02;100.00;81275.25;5114492;28;20307;-68
2024/01/27 02:33:37;;;;;;;15.97;15.47;;;;;;;-141.02;100.00;81275.25;5114114;28;20624;-67
2024/01/27 02:36:04;;;;;;;16.60;16.00;;;;;;;-141.02;100.00;81275.25;5114158;28;20279;-68
2024/01/27 02:38:31;;;;;;;16.33;15.83;;;;;;;-141.02;100.00;81523.75;5114378;28;20204;-68
2024/01/27 02:40:58;;;;;;;16.30;15.70;;;;;;;-141.02;100.00;81772.31;5114337;28;20197;-68
2024/01/27 02:43:27;;;;;;;15.60;15.10;;;;;;;-141.02;100.00;81772.31;5114143;28;20272;-68
2024/01/27 02:45:54;;;;;;;18.60;17.90;;;;;;;-141.02;100.00;81772.31;5113976;28;20280;-68
2024/01/27 02:48:21;;;;;;;18.13;17.43;;;;;;;-141.02;100.00;82020.88;5113850;28;20590;-68
2024/01/27 02:50:49;;;;;;;19.10;18.40;;;;;;;-141.02;100.00;82020.88;5114078;28;20625;-68
2024/01/27 02:53:16;;;;;;;20.00;19.20;;;;;;;-141.02;100.00;82020.88;5113839;28;20741;-68
2024/01/27 02:55:42;;;;;;;20.77;19.97;;;;;;;-141.02;100.00;82020.88;5114022;28;20193;-68
2024/01/27 02:58:09;;;;;;;21.40;20.60;;;;;;;-141.02;100.00;82020.88;5113656;28;20660;-68
2024/01/27 03:00:38;;;;;;;19.03;18.33;;;;;;;-141.02;100.00;82020.88;5113974;28;20194;-68
2024/01/27 03:03:05;;;;;;;18.43;17.73;;;;;;;-141.02;100.00;82269.47;5113559;28;20193;-68
2024/01/27 03:05:32;;;;;;;17.80;17.10;;;;;;;-141.02;100.00;82269.47;5113825;28;20228;-68
2024/01/27 03:07:59;;;;;;;18.40;17.70;;;;;;;-141.02;100.00;82518.06;5113815;28;20272;-69
2024/01/27 03:10:26;;;;;;;21.43;20.53;;;;;;;-141.02;100.00;82766.69;5113739;28;20284;-69
2024/01/27 03:12:54;;;;;;;17.80;17.20;;;;;;;-141.02;100.00;83263.97;5113307;28;20718;-69
2024/01/27 03:15:21;;;;;;;16.60;16.07;;;;;;;-141.02;100.00;83761.31;5113325;28;20250;-68
2024/01/27 03:17:49;;;;;;;15.57;15.07;;;;;;;-141.02;100.00;84010.03;5113281;28;20697;-70
2024/01/27 03:20:16;;;;;;;15.47;14.97;;;;;;;-141.02;100.00;84010.03;5113551;28;20197;-70
2024/01/27 03:22:43;;;;;;;15.67;15.17;;;;;;;-141.02;100.00;84258.75;5113524;28;20193;-69
2024/01/27 03:25:11;;;;;;;14.23;13.73;;;;;;;-141.02;100.00;84507.50;5113540;28;20254;-69
2024/01/27 03:27:38;;;;;;;13.60;13.10;;;;;;;-141.02;100.00;84756.25;5113605;28;20577;-70
2024/01/27 03:30:07;;;;;;;12.60;12.20;;;;;;;-141.02;100.00;85253.84;5113404;28;20197;-71
2024/01/27 03:32:34;;;;;;;10.63;10.33;;;;;;;-141.02;100.00;86000.34;5112941;28;20229;-71
2024/01/27 03:35:03;;;;;;;13.47;13.07;;;;;;;-141.02;100.00;86995.94;5112992;28;20579;-70
2024/01/27 03:37:30;;;;;;;13.20;12.80;;;;;;;-141.02;100.00;88489.84;5113289;28;20194;-69
2024/01/27 03:39:57;;;;;;;14.90;14.50;;;;;;;-141.02;100.00;90482.72;5112864;28;20240;-68
2024/01/27 03:42:25;;;;;;;16.50;16.00;;;;;;;-141.02;100.00;92726.13;5112890;28;20279;-69
2024/01/27 03:44:52;;;;;;;15.50;15.00;;;;;;;-141.02;100.00;94721.44;5112702;28;20240;-73
2024/01/27 03:47:19;;;;;;;15.27;14.80;;;;;;;-141.02;100.00;96717.94;5112831;28;20285;-69
2024/01/27 03:49:46;;;;;;;14.77;14.27;;;;;;;-141.02;100.00;98465.78;5112755;28;20284;-70
2024/01/27 03:52:15;;;;;;;15.03;14.53;;;;;;;-141.02;100.00;100214.53;5112989;28;20224;-72
2024/01/27 03:54:42;;;;;;;14.13;13.73;;;;;;;-141.02;100.00;101714.16;5112702;28;20236;-68
2024/01/27 03:57:09;;;;;;;14.47;14.00;;;;;;;-141.02;100.00;102464.22;5112642;28;20224;-69
2024/01/27 03:59:36;;;;;;;14.37;13.97;;;;;;;-141.02;100.00;103214.44;5112873;28;20258;-70
2024/01/27 04:02:03;;;;;;;13.23;12.83;;;;;;;-141.02;100.00;104965.56;5112594;28;20739;-69
2024/01/27 04:04:30;;;;;;;13.33;12.93;;;;;;;-141.02;100.00;105716.31;5112986;28;20575;-69
2024/01/27 04:06:57;;;;;;;12.10;11.73;;;;;;;-141.02;100.00;106467.22;5112549;28;20233;-69
2024/01/27 04:09:25;;;;;;;13.03;12.63;;;;;;;-141.02;100.00;106967.91;5112136;28;20243;-69
2024/01/27 04:11:52;;;;;;;13.83;13.43;;;;;;;-141.02;100.00;107218.31;5112415;28;20702;-70
2024/01/27 04:14:19;;;;;;;13.90;13.50;;;;;;;-141.02;100.00;107468.69;5112447;28;20193;-70
2024/01/27 04:16:46;;;;;;;13.13;12.73;;;;;;;-141.02;100.00;107719.09;5113623;28;20215;-69
2024/01/27 04:19:13;;;;;;;14.23;13.73;;;;;;;-141.02;100.00;107969.53;5112369;28;20235;-69
2024/01/27 04:21:42;;;;;;;14.13;13.73;;;;;;;-141.02;100.00;107971.50;5113019;28;20225;-72
2024/01/27 04:24:09;;;;;;;16.23;15.73;;;;;;;-141.02;100.00;107971.50;5112617;28;20659;-69
2024/01/27 04:26:37;;;;;;;15.73;15.23;;;;;;;-141.02;100.00;107971.50;5112616;28;20281;-71
2024/01/27 04:29:04;;;;;;;14.10;13.70;;;;;;;-141.02;100.00;107971.50;5112619;28;20272;-70
2024/01/27 04:31:31;;;;;;;13.80;13.40;;;;;;;-141.02;100.00;107971.50;5112528;28;20276;-70
2024/01/27 04:33:59;;;;;;;14.03;13.63;;;;;;;-141.02;100.00;107971.50;5112573;28;20193;-71
2024/01/27 04:36:27;;;;;;;14.73;14.33;;;;;;;-141.02;100.00;107971.50;5112584;28;20193;-70
2024/01/27 04:38:57;;;;;;;14.60;14.20;;;;;;;-141.02;100.00;107971.50;5112219;28;20671;-71
2024/01/27 04:41:25;;;;;;;15.70;15.20;;;;;;;-141.02;100.00;107971.50;5112628;28;20626;-71
2024/01/27 04:43:59;;;;;;;16.10;15.60;;;;;;;-141.02;100.00;107971.50;5112287;28;20320;-70
2024/01/27 04:46:26;;;;;;;13.30;12.90;;;;;;;-141.02;100.00;107971.50;5112213;28;20218;-73
2024/01/27 04:48:56;;;;;;;14.40;14.00;;;;;;;-141.02;100.00;107971.50;5112106;28;20280;-70
2024/01/27 04:51:29;;;;;;;14.63;14.23;;;;;;;-141.02;100.00;107971.50;5112398;28;20273;-72
2024/01/27 04:53:56;;;;;;;15.90;15.40;;;;;;;-141.02;100.00;107971.50;5112086;28;20231;-70
2024/01/27 04:56:26;;;;;;;14.60;14.20;;;;;;;-141.02;100.00;107971.50;5112093;28;20284;-71
2024/01/27 04:58:56;;;;;;;15.17;14.67;;;;;;;-141.02;100.00;107971.50;5112076;28;20236;-69
2024/01/27 05:01:31;;;;;;;16.60;16.00;;;;;;;-141.02;100.00;107971.50;5112328;28;20193;-70
2024/01/27 05:03:59;;;;;;;15.07;14.57;;;;;;;-141.02;100.00;107971.50;5111927;28;20615;-71
2024/01/27 05:06:29;;;;;;;17.17;16.57;;;;;;;-141.02;100.00;107971.50;5112211;28;20607;-71
2024/01/27 05:08:59;;;;;;;17.40;16.80;;;;;;;-141.02;100.00;107971.50;5111978;28;20284;-70
2024/01/27 05:11:32;;;;;;;18.37;17.67;;;;;;;-141.02;100.00;107971.50;5111887;28;20236;-71
2024/01/27 05:13:59;;;;;;;16.03;15.43;;;;;;;-141.02;100.00;107971.50;5112287;28;20609;-70
2024/01/27 05:16:29;;;;;;;15.13;14.63;;;;;;;-141.02;100.00;107971.50;5112176;28;20254;-70
2024/01/27 05:19:00;;;;;;;16.13;15.63;;;;;;;-141.02;100.00;107971.50;5111866;28;20250;-70
2024/01/27 05:21:32;;;;;;;15.20;14.70;;;;;;;-141.02;100.00;107971.50;5115359;28;20193;-70
2024/01/27 05:23:59;;;;;;;14.70;14.20;;;;;;;-141.02;100.00;107971.50;5115883;28;20284;-70
2024/01/27 05:26:58;;;;;;;14.40;13.90;;;;;;;-141.02;100.00;107971.50;5115812;28;20231;-70
2024/01/27 05:29:25;;;;;;;14.83;14.33;;;;;;;-141.02;100.00;107971.50;5115570;28;20201;-71
2024/01/27 05:31:51;;;;;;;14.10;13.60;;;;;;;-141.02;100.00;107971.50;5115395;28;20288;-71
2024/01/27 05:34:20;;;;;;;14.90;14.40;;;;;;;-141.02;100.00;107971.50;5115678;28;20275;-71
2024/01/27 05:36:48;;;;;;;15.53;15.03;;;;;;;-141.02;100.00;107971.50;5115242;28;20651;-70
2024/01/27 05:39:15;;;;;;;16.73;16.13;;;;;;;-141.02;100.00;107971.50;5115562;28;20193;-72
2024/01/27 05:41:42;;;;;;;15.60;15.10;;;;;;;-141.02;100.00;107971.50;5115474;28;20203;-71
2024/01/27 05:44:09;;;;;;;14.43;13.93;;;;;;;-141.02;100.00;107971.50;5115203;28;20288;-71
2024/01/27 05:46:36;;;;;;;14.90;14.40;;;;;;;-141.02;100.00;107971.50;5115086;28;20663;-72
2024/01/27 05:49:03;;;;;;;15.40;14.90;;;;;;;-141.02;100.00;107971.50;5115351;28;20252;-72
2024/01/27 05:51:32;;;;;;;15.10;14.60;;;;;;;-141.02;100.00;107971.50;5115321;28;20225;-70
2024/01/27 05:54:01;;;;;;;14.73;14.23;;;;;;;-141.02;100.00;107971.50;5115048;28;20272;-70
2024/01/27 05:56:28;;;;;;;15.73;15.13;;;;;;;-141.02;100.00;107971.50;5114978;28;20189;-71
2024/01/27 05:58:57;;;;;;;15.20;14.70;;;;;;;-141.02;100.00;107971.50;5114844;28;20656;-72
2024/01/27 06:01:24;;;;;;;13.40;13.00;;;;;;;-141.02;100.00;107971.50;5115166;28;20281;-70
2024/01/27 06:03:51;;;;;;;12.90;12.50;;;;;;;-141.02;100.00;107971.50;5115098;28;20293;-72
2024/01/27 06:06:17;;;;;;;11.80;11.47;;;;;;;-141.02;100.00;107971.50;5114748;28;20207;-71
2024/01/27 06:08:46;;;;;;;11.60;11.30;;;;;;;-141.02;100.00;107971.50;5114991;28;20228;-71
2024/01/27 06:11:13;;;;;;;11.37;11.07;;;;;;;-141.02;100.00;107971.50;5114949;28;20203;-71
2024/01/27 06:13:41;;;;;;;10.80;10.50;;;;;;;-141.02;100.00;107971.50;5114533;28;20604;-71
2024/01/27 06:16:09;;;;;;;11.67;11.37;;;;;;;-141.02;100.00;107971.50;5114553;28;20685;-71
2024/01/27 06:18:36;;;;;;;11.53;11.23;;;;;;;-141.02;100.00;107971.50;5114546;28;20204;-70
2024/01/27 06:21:05;;;;;;;11.63;11.33;;;;;;;-141.02;100.00;107971.50;5114817;28;20208;-70
2024/01/27 06:23:32;;;;;;;11.07;10.77;;;;;;;-141.02;100.00;107971.50;5114390;28;20251;-70
2024/01/27 06:26:00;;;;;;;11.30;11.00;;;;;;;-141.02;100.00;107971.50;5114731;28;20582;-69
2024/01/27 06:28:27;;;;;;;12.40;12.00;;;;;;;-141.02;100.00;107971.50;5114282;28;20288;-69
2024/01/27 06:30:54;;;;;;;13.07;12.67;;;;;;;-141.02;100.00;107971.50;5114228;28;20196;-67
2024/01/27 06:34:11;;;;;;;12.30;11.90;;;;;;;-141.02;100.00;107971.50;5114168;28;20326;-67
2024/01/27 06:36:38;;;;;;;12.67;12.27;;;;;;;-141.02;100.00;107971.50;5114158;28;20189;-67
2024/01/27 06:39:05;;;;;;;12.90;12.50;;;;;;;-141.02;100.00;107971.50;5114126;28;20200;-68
2024/01/27 06:41:34;;;;;;;12.77;12.37;;;;;;;-141.02;100.00;107971.50;5114113;28;20231;-69
2024/01/27 06:44:01;;;;;;;15.40;14.90;;;;;;;-141.02;100.00;107971.50;5113875;28;20714;-68
2024/01/27 06:46:28;;;;;;;12.90;12.50;;;;;;;-141.02;100.00;107971.50;5114376;28;20190;-68
2024/01/27 06:48:55;;;;;;;12.93;12.53;;;;;;;-141.02;100.00;107971.50;5113863;28;20224;-67
2024/01/27 06:51:22;;;;;;;14.57;14.07;;;;;;;-141.02;100.00;107971.50;5113894;28;20239;-68
2024/01/27 06:53:48;;;;;;;14.40;13.90;;;;;;;-141.02;100.00;107971.50;5114017;28;20308;-68
2024/01/27 06:56:15;;;;;;;14.53;14.03;;;;;;;-141.02;100.00;107971.50;5113791;28;20232;-67
2024/01/27 06:58:44;;;;;;;12.33;11.93;;;;;;;-141.02;100.00;107971.50;5114013;28;20189;-66
2024/01/27 07:01:11;;;;;;;11.70;11.40;;;;;;;-141.02;100.00;107971.50;5113667;28;20646;-67
2024/01/27 07:03:39;;;;;;;14.30;13.80;;;;;;;-141.02;100.00;107971.50;5113596;28;20200;-66
2024/01/27 07:06:06;;;;;;;11.87;11.53;;;;;;;-141.02;100.00;107971.50;5114201;28;20201;-68
2024/01/27 07:08:33;;;;;;;15.07;14.57;;;;;;;-141.02;100.00;107971.50;5113536;28;20685;-67
2024/01/27 07:11:00;;;;;;;11.10;10.80;;;;;;;-141.02;100.00;107971.50;5113711;28;20250;-66
2024/01/27 07:13:29;;;;;;;10.93;10.63;;;;;;;-141.02;100.00;107971.50;5113637;28;20315;-66
2024/01/27 07:15:58;;;;;;;11.73;11.33;;;;;;;-141.02;100.00;107971.50;5113644;28;20193;-67
2024/01/27 07:18:25;;;;;;;11.57;11.17;;;;;;;-141.02;100.00;107971.50;5113611;28;20219;-67
2024/01/27 07:20:52;;;;;;;11.83;11.43;;;;;;;-141.02;100.00;107971.50;5113633;28;20193;-65
2024/01/27 07:23:19;;;;;;;11.57;11.27;;;;;;;-141.02;100.00;107971.50;5113277;28;20292;-66
2024/01/27 07:25:46;;;;;;;10.83;10.53;;;;;;;-141.02;100.00;107971.50;5113511;28;20272;-66
2024/01/27 07:28:15;;;;;;;11.40;11.10;;;;;;;-141.02;100.00;107971.50;5113475;28;20197;-66
2024/01/27 07:30:42;;;;;;;11.33;11.03;;;;;;;-141.02;100.00;107971.50;5113423;28;20296;-66
2024/01/27 07:33:11;;;;;;;10.30;10.00;;;;;;;-141.02;100.00;107971.50;5113030;28;20690;-66
2024/01/27 07:35:38;;;;;;;10.30;10.00;;;;;;;-141.02;100.00;107971.50;5113319;28;20613;-66
2024/01/27 07:38:05;;;;;;;9.97;9.67;;;;;;;-141.02;100.00;107971.50;5113294;28;20197;-65
2024/01/27 07:40:32;;;;;;;10.00;9.70;;;;;;;-141.02;100.00;107971.50;5112953;28;20193;-65
2024/01/27 07:42:59;;;;;;;10.20;9.90;;;;;;;-141.02;100.00;107971.50;5112286;28;20198;-65
2024/01/27 07:45:26;;;;;;;10.63;10.33;;;;;;;-141.02;100.00;107971.50;5112738;28;20251;-66
2024/01/27 07:47:53;;;;;;;11.80;11.40;;;;;;;-141.02;100.00;107971.50;5113159;28;20271;-65
2024/01/27 07:50:22;;;;;;;12.70;12.30;;;;;;;-141.02;100.00;107971.50;5113164;28;20222;-64
2024/01/27 07:52:49;;;;;;;14.10;13.60;;;;;;;-141.02;100.00;107971.50;5112653;28;20307;-68
2024/01/27 07:55:17;;;;;;;15.10;14.60;;;;;;;-141.02;100.00;107971.50;5113068;28;20231;-65
2024/01/27 07:57:44;;;;;;;15.90;15.30;;;;;;;-141.02;100.00;107969.53;5113040;28;20273;-65
2024/01/27 08:00:11;;;;;;;16.70;16.00;;;;;;;-141.02;100.00;107969.53;5112651;28;20619;-66
2024/01/27 08:02:41;;;;;;;25.53;24.23;;;;;;;-141.02;100.00;107969.53;5112982;28;20227;-66
2024/01/27 08:05:09;;;;;;;19.03;18.23;;;;;;;-141.02;100.00;107969.53;5112538;28;20197;-67
2024/01/27 08:07:37;;;;;;;18.73;17.93;;;;;;;-141.02;100.00;107971.50;5112874;28;20189;-66
2024/01/27 08:10:05;;;;;;;19.50;18.60;;;;;;;-141.02;100.00;107969.53;5112820;28;20707;-65
2024/01/27 08:12:32;;;;;;;19.53;18.63;;;;;;;-141.02;100.00;107969.53;5112360;28;20663;-66
2024/01/27 08:15:00;;;;;;;20.60;19.60;;;;;;;-141.02;100.00;107719.09;5112476;28;20714;-66
2024/01/27 08:17:27;;;;;;;21.40;20.40;;;;;;;-141.02;100.00;107719.09;5112709;28;20224;-66
2024/01/27 08:19:54;;;;;;;22.03;20.93;;;;;;;-141.02;100.00;107719.09;5112722;28;20225;-67
2024/01/27 08:22:21;;;;;;;21.70;20.60;;;;;;;-141.02;100.00;107719.09;5112300;28;20250;-67
2024/01/27 08:25:08;;;;;;;21.77;20.67;;;;;;;-141.02;100.00;107468.69;5113248;28;20197;-67
2024/01/27 08:27:35;;;;;;;21.27;20.27;;;;;;;-141.02;100.00;107468.69;5112567;28;20297;-68
2024/01/27 08:33:24;;;;;;;21.60;20.60;;;;;;;-141.02;100.00;107218.31;5112322;28;20594;-70
2024/01/27 08:35:53;;;;;;;22.40;21.30;;;;;;;-141.02;100.00;106467.22;5112653;28;20193;-70
2024/01/27 08:41:43;;;;;;;22.20;21.10;;;;;;;-141.02;100.00;105966.59;5112403;28;20184;-71
2024/01/27 08:44:10;;;;;;;21.37;20.37;;;;;;;-141.02;100.00;105966.59;5111997;28;20268;-71
2024/01/27 08:46:37;;;;;;;19.60;18.70;;;;;;;-141.02;100.00;105966.59;5112503;28;20189;-74
2024/01/27 08:49:04;;;;;;;19.03;18.23;;;;;;;-141.02;100.00;105716.31;5112489;28;20204;-77
2024/01/27 08:54:53;;;;;;;15.60;15.00;;;;;;;-141.02;100.00;106216.91;5114741;28;20197;-72
2024/01/27 08:57:21;;;;;;;16.33;15.73;;;;;;;-141.02;100.00;105466.03;5116153;28;20235;-71
2024/01/27 09:00:24;;;;;;;15.20;14.60;;;;;;;-141.02;100.00;105466.03;5116397;28;20272;-72
2024/01/27 09:03:01;;;;;;;14.83;14.23;;;;;;;-141.02;100.00;105215.78;5116340;28;20277;-73
2024/01/27 09:05:29;;;;;;;15.00;14.40;;;;;;;-141.02;100.00;104965.56;5116332;28;20228;-74
2024/01/27 09:07:56;;;;;;;14.50;13.90;;;;;;;-141.02;100.00;104965.56;5116160;28;20280;-75
2024/01/27 09:10:23;;;;;;;14.00;13.50;;;;;;;-141.02;100.00;104715.34;5116143;28;20200;-76
2024/01/27 09:12:51;;;;;;;13.90;13.40;;;;;;;-141.02;100.00;104715.34;5115792;28;20232;-75
2024/01/27 09:15:18;;;;;;;12.73;12.33;;;;;;;-141.02;100.00;104965.56;5116074;28;20225;-75
2024/01/27 09:18:05;;;;;;;11.83;11.43;;;;;;;-141.02;100.00;104715.34;5115821;28;20200;-77
2024/01/27 09:20:32;;;;;;;11.87;11.47;;;;;;;-141.02;100.00;104965.56;5115988;28;20197;-77
2024/01/27 09:22:59;;;;;;;11.67;11.27;;;;;;;-141.02;100.00;104965.56;5115649;28;20670;-78
2024/01/27 09:25:27;;;;;;;13.00;12.60;;;;;;;-141.02;100.00;104965.56;5115533;28;20197;-78
2024/01/27 09:27:56;;;;;;;12.50;12.10;;;;;;;-141.02;100.00;104965.56;5115463;28;20193;-80
2024/01/27 09:30:23;;;;;;;12.17;11.77;;;;;;;-141.02;100.00;104965.56;5115842;28;20201;-79
2024/01/27 09:32:50;;;;;;;11.30;11.00;;;;;;;-141.02;100.00;104965.56;5115564;28;20197;-80
2024/01/27 09:35:17;;;;;;;10.80;10.50;;;;;;;-141.02;100.00;104965.56;5115757;28;20193;-80
2024/01/27 09:37:46;;;;;;;11.00;10.70;;;;;;;-141.02;100.00;104965.56;5115447;28;20292;-81
2024/01/27 09:40:13;;;;;;;10.50;10.20;;;;;;;-141.02;100.00;104965.56;5115714;28;20549;-79
2024/01/27 09:42:44;;;;;;;10.90;10.60;;;;;;;-141.02;100.00;104965.56;5115827;28;20193;-80
2024/01/27 09:45:12;;;;;;;10.80;10.50;;;;;;;-141.02;100.00;104715.34;5115354;28;20289;-80
2024/01/27 09:47:40;;;;;;;10.90;10.60;;;;;;;-141.02;100.00;104465.16;5116514;28;20287;-80
2024/01/27 09:50:12;;;;;;;11.97;11.57;;;;;;;-141.02;100.00;104214.97;5116151;28;20647;-80
2024/01/27 09:52:39;;;;;;;11.23;10.93;;;;;;;-141.02;100.00;103964.81;5116061;28;20186;-78
2024/01/27 09:55:06;;;;;;;12.20;11.80;;;;;;;-141.02;100.00;103964.81;5115403;28;20280;-78
2024/01/27 09:57:34;;;;;;;12.37;11.97;;;;;;;-141.02;100.00;103964.81;5115358;28;20284;-78
2024/01/27 10:00:02;;;;;;;11.67;11.27;;;;;;;-141.02;100.00;103714.66;5115252;28;20225;-78
2024/01/27 10:02:31;;;;;;;11.57;11.00;;;;;;;-141.02;100.00;103714.66;5115149;28;20273;-78
2024/01/27 10:04:58;;;;;;;11.10;10.80;;;;;;;-141.02;100.00;103464.53;5115219;28;20250;-77
2024/01/27 10:07:26;;;;;;;11.30;10.90;;;;;;;-141.02;100.00;103464.53;5114552;28;20197;-78
2024/01/27 10:09:53;;;;;;;11.57;11.17;;;;;;;-141.02;100.00;103464.53;5114715;28;20246;-78
2024/01/27 10:12:23;;;;;;;12.20;11.73;;;;;;;-141.02;100.00;103214.44;5115061;28;20613;-78
2024/01/27 10:14:52;;;;;;;12.00;11.60;;;;;;;-141.02;100.00;103214.44;5114560;28;20615;-78
2024/01/27 10:17:23;;;;;;;12.40;12.00;;;;;;;-141.02;100.00;102964.34;5114973;28;20621;-78
2024/01/27 10:20:25;;;;;;;12.13;11.73;;;;;;;-141.02;100.00;102964.34;5115183;28;20570;-79
2024/01/27 10:22:53;;;;;;;12.47;11.87;;;;;;;-141.02;100.00;103214.44;5115500;28;20216;-79
2024/01/27 10:25:20;;;;;;;12.00;11.60;;;;;;;-141.02;100.00;103464.53;5115158;28;20261;-79
2024/01/27 10:27:47;;;;;;;12.97;12.47;;;;;;;-141.02;100.00;103214.44;5115174;28;20204;-78
2024/01/27 10:30:17;;;;;;;13.17;12.67;;;;;;;-141.02;100.00;103214.44;5114658;28;20193;-79
2024/01/27 10:32:44;;;;;;;12.80;12.30;;;;;;;-141.02;100.00;102964.34;5115197;28;20185;-79
2024/01/27 10:35:13;;;;;;;14.03;13.43;;;;;;;-141.02;100.00;102964.34;5116006;28;20605;-79
2024/01/27 10:37:40;;;;;;;14.17;13.67;;;;;;;-141.02;100.00;102964.34;5116907;28;20232;-81
2024/01/27 10:40:09;;;;;;;15.20;14.60;;;;;;;-141.02;100.00;102714.25;5118015;28;20204;-79
2024/01/27 10:42:37;;;;;;;14.20;13.50;;;;;;;-141.02;100.00;102214.16;5116845;28;20197;-80
2024/01/27 10:45:06;;;;;;;13.77;13.17;;;;;;;-141.02;100.00;102464.22;5113892;28;20268;-80
2024/01/27 10:47:34;;;;;;;14.37;13.63;;;;;;;-141.02;100.00;102464.22;5116362;28;20221;-80
2024/01/27 10:50:02;;;;;;;14.67;13.87;;;;;;;-141.02;100.00;102714.25;5119388;28;20197;-81
2024/01/27 10:52:32;;;;;;;15.30;14.40;;;;;;;-141.02;100.00;102464.22;5116980;28;20200;-79
2024/01/27 10:55:02;;;;;;;15.53;14.63;;;;;;;-141.02;100.00;101714.16;5115068;28;20308;-72
2024/01/27 10:57:31;;;;;;;14.60;13.80;;;;;;;-141.02;100.00;101464.19;5114452;28;20601;-80
2024/01/27 11:00:06;;;;;;;14.67;13.87;;;;;;;-141.02;100.00;101464.19;5114785;28;20280;-79
2024/01/27 11:02:35;;;;;;;14.87;14.07;;;;;;;-141.02;100.00;101214.22;5114162;28;20193;-79
2024/01/27 11:05:04;;;;;;;14.20;13.50;;;;;;;-141.02;100.00;101464.19;5114084;28;20240;-78